createdAt,value
2022-11-29T00:02:24.481Z,12.43
2022-11-29T00:04:57.428Z,12.43
2022-11-29T00:07:31.626Z,12.40
2022-11-29T00:10:04.988Z,12.39
2022-11-29T00:12:37.769Z,12.37
2022-11-29T00:15:10.756Z,12.36
2022-11-29T00:17:43.998Z,12.34
2022-11-29T00:20:17.007Z,12.32
2022-11-29T00:22:51.279Z,12.30
2022-11-29T00:25:24.286Z,12.26
2022-11-29T00:27:57.081Z,12.23
2022-11-29T00:30:30.058Z,12.19
2022-11-29T00:33:03.769Z,12.17
2022-11-29T00:35:36.631Z,12.13
2022-11-29T00:38:10.825Z,12.12
2022-11-29T00:40:43.780Z,12.08
2022-11-29T00:43:16.564Z,12.06
2022-11-29T00:45:49.480Z,12.05
2022-11-29T00:48:22.327Z,12.04
2022-11-29T00:50:55.201Z,12.04
2022-11-29T00:53:30.033Z,12.03
2022-11-29T00:56:04.623Z,12.01
2022-11-29T00:58:37.808Z,12.02
2022-11-29T01:01:11.798Z,12.01
2022-11-29T01:03:44.700Z,12.00
2022-11-29T01:06:19.304Z,12.00
2022-11-29T01:08:54.054Z,12.00
2022-11-29T01:11:28.797Z,12.00
2022-11-29T01:14:02.995Z,11.97
2022-11-29T01:16:36.035Z,11.95
2022-11-29T01:19:08.916Z,11.92
2022-11-29T01:21:42.341Z,11.90
2022-11-29T01:24:16.555Z,11.89
2022-11-29T01:26:49.424Z,11.85
2022-11-29T01:32:12.695Z,11.81
2022-11-29T01:34:45.642Z,11.81
2022-11-29T01:37:18.683Z,11.81
2022-11-29T01:39:52.877Z,11.81
2022-11-29T01:42:25.764Z,11.82
2022-11-29T01:45:08.954Z,11.85
2022-11-29T01:47:47.366Z,11.86
2022-11-29T01:50:20.904Z,11.86
2022-11-29T01:52:53.895Z,11.86
2022-11-29T01:55:28.156Z,11.90
2022-11-29T02:00:52.485Z,11.90
2022-11-29T02:03:25.455Z,11.90
2022-11-29T02:05:58.249Z,11.90
2022-11-29T02:08:37.574Z,11.92
2022-11-29T02:11:43.225Z,11.90
2022-11-29T02:14:34.641Z,11.90
2022-11-29T02:17:15.352Z,11.89
2022-11-29T02:20:12.139Z,11.90
2022-11-29T02:22:51.786Z,11.89
2022-11-29T02:25:41.540Z,11.88
2022-11-29T02:28:45.206Z,11.88
2022-11-29T02:31:54.930Z,11.89
2022-11-29T02:34:54.567Z,11.91
2022-11-29T02:37:46.725Z,11.89
2022-11-29T02:40:42.494Z,11.89
2022-11-29T02:43:33.037Z,11.86
2022-11-29T02:46:18.661Z,11.82
2022-11-29T02:48:59.221Z,11.77
2022-11-29T02:51:42.312Z,11.72
2022-11-29T02:54:20.539Z,11.68
2022-11-29T02:56:57.965Z,11.63
2022-11-29T02:59:46.803Z,11.60
2022-11-29T03:02:27.817Z,11.56
2022-11-29T03:05:10.780Z,11.53
2022-11-29T03:07:56.850Z,11.50
2022-11-29T03:10:40.926Z,11.46
2022-11-29T03:13:24.957Z,11.43
2022-11-29T03:16:05.204Z,11.40
2022-11-29T03:18:55.974Z,11.37
2022-11-29T03:21:40.783Z,11.31
2022-11-29T03:24:22.330Z,11.28
2022-11-29T03:27:02.842Z,11.24
2022-11-29T03:29:41.268Z,11.21
2022-11-29T03:32:21.474Z,11.18
2022-11-29T03:35:00.843Z,11.16
2022-11-29T03:37:43.138Z,11.13
2022-11-29T03:40:20.930Z,11.11
2022-11-29T03:42:59.389Z,11.08
2022-11-29T03:45:39.804Z,11.05
2022-11-29T03:48:18.634Z,11.03
2022-11-29T03:50:57.430Z,11.03
2022-11-29T03:53:35.120Z,10.99
2022-11-29T03:59:25.504Z,10.94
2022-11-29T04:02:34.883Z,10.92
2022-11-29T04:05:30.472Z,10.92
2022-11-29T04:08:41.078Z,10.92
2022-11-29T04:11:55.811Z,10.92
2022-11-29T04:14:38.315Z,10.94
2022-11-29T04:17:42.588Z,10.96
2022-11-29T04:20:56.926Z,10.97
2022-11-29T04:24:08.262Z,11.00
2022-11-29T04:27:10.739Z,11.02
2022-11-29T04:30:07.108Z,11.04
2022-11-29T04:33:05.770Z,11.03
2022-11-29T04:36:07.905Z,11.05
2022-11-29T04:38:49.385Z,11.05
2022-11-29T04:41:59.209Z,11.09
2022-11-29T04:44:45.685Z,11.09
2022-11-29T04:47:42.141Z,11.08
2022-11-29T04:50:25.260Z,11.06
2022-11-29T04:53:49.199Z,11.04
2022-11-29T04:56:32.229Z,11.01
2022-11-29T04:59:14.491Z,11.00
2022-11-29T05:01:59.815Z,11.00
2022-11-29T05:04:47.727Z,10.99
2022-11-29T05:07:30.449Z,11.00
2022-11-29T05:10:25.522Z,11.01
2022-11-29T05:13:07.225Z,11.03
2022-11-29T05:15:51.531Z,11.05
2022-11-29T05:18:36.016Z,11.07
2022-11-29T05:21:19.996Z,11.11
2022-11-29T05:24:04.406Z,11.11
2022-11-29T05:26:44.880Z,11.13
2022-11-29T05:29:22.995Z,11.14
2022-11-29T05:32:04.734Z,11.15
2022-11-29T05:34:53.327Z,11.18
2022-11-29T05:37:39.140Z,11.20
2022-11-29T05:40:47.381Z,11.23
2022-11-29T05:43:33.460Z,11.25
2022-11-29T05:46:13.195Z,11.29
2022-11-29T05:48:54.237Z,11.33
2022-11-29T05:51:41.154Z,11.35
2022-11-29T05:54:26.869Z,11.39
2022-11-29T05:57:09.707Z,11.44
2022-11-29T05:59:44.751Z,11.46
2022-11-29T06:02:29.183Z,11.52
2022-11-29T06:05:11.590Z,11.55
2022-11-29T06:07:55.060Z,11.57
2022-11-29T06:10:32.973Z,11.60
2022-11-29T06:13:17.434Z,11.63
2022-11-29T06:16:17.295Z,11.66
2022-11-29T06:19:12.924Z,11.68
2022-11-29T06:21:52.409Z,11.68
2022-11-29T06:24:47.146Z,11.71
2022-11-29T06:27:39.956Z,11.73
2022-11-29T06:30:15.441Z,11.73
2022-11-29T06:32:55.962Z,11.73
2022-11-29T06:35:40.931Z,11.72
2022-11-29T06:38:19.383Z,11.71
2022-11-29T06:40:56.052Z,11.67
2022-11-29T06:43:35.130Z,11.67
2022-11-29T06:46:20.026Z,11.65
2022-11-29T06:49:01.894Z,11.61
2022-11-29T06:51:45.371Z,11.60
2022-11-29T06:54:33.630Z,11.57
2022-11-29T06:57:14.758Z,11.54
2022-11-29T07:00:00.094Z,11.53
2022-11-29T07:02:55.386Z,11.52
2022-11-29T07:05:30.031Z,11.48
2022-11-29T07:08:05.231Z,11.49
2022-11-29T07:10:40.787Z,11.46
2022-11-29T07:13:14.810Z,11.47
2022-11-29T07:16:00.729Z,11.48
2022-11-29T07:18:42.920Z,11.49
2022-11-29T07:21:27.929Z,11.50
2022-11-29T07:24:10.092Z,11.53
2022-11-29T07:26:55.141Z,11.53
2022-11-29T07:29:41.248Z,11.57
2022-11-29T07:32:22.147Z,11.58
2022-11-29T07:35:03.065Z,11.59
2022-11-29T07:37:42.253Z,11.63
2022-11-29T07:40:19.757Z,11.67
2022-11-29T07:43:05.962Z,11.71
2022-11-29T07:45:40.429Z,11.73
2022-11-29T07:48:14.934Z,11.77
2022-11-29T07:50:48.447Z,11.81
2022-11-29T07:53:23.205Z,11.85
2022-11-29T07:55:56.154Z,11.88
2022-11-29T07:58:29.318Z,11.92
2022-11-29T08:01:02.235Z,11.94
2022-11-29T08:03:36.492Z,11.98
2022-11-29T08:06:09.558Z,12.01
2022-11-29T08:08:44.136Z,12.05
2022-11-29T08:11:17.353Z,12.08
2022-11-29T08:13:50.177Z,12.10
2022-11-29T08:16:23.015Z,12.14
2022-11-29T08:18:57.520Z,12.20
2022-11-29T08:21:30.447Z,12.21
2022-11-29T08:24:03.244Z,12.23
2022-11-29T08:26:36.196Z,12.28
2022-11-29T08:29:09.217Z,12.33
2022-11-29T08:31:42.428Z,12.36
2022-11-29T08:34:16.610Z,12.40
2022-11-29T08:36:49.944Z,12.45
2022-11-29T08:39:22.885Z,12.48
2022-11-29T08:41:55.736Z,12.54
2022-11-29T08:44:28.584Z,12.57
2022-11-29T08:47:19.074Z,12.62
2022-11-29T08:50:07.086Z,12.67
2022-11-29T08:53:00.148Z,12.72
2022-11-29T08:55:36.234Z,12.77
2022-11-29T08:58:11.211Z,12.79
2022-11-29T09:00:46.937Z,12.84
2022-11-29T09:03:37.894Z,12.89
2022-11-29T09:06:14.582Z,12.93
2022-11-29T09:08:47.481Z,12.96
2022-11-29T09:11:22.620Z,12.99
2022-11-29T09:13:57.660Z,13.05
2022-11-29T09:16:33.855Z,13.08
2022-11-29T09:19:07.948Z,13.10
2022-11-29T09:21:42.282Z,13.17
2022-11-29T09:24:16.077Z,13.20
2022-11-29T09:26:49.203Z,13.25
2022-11-29T09:29:22.119Z,13.30
2022-11-29T09:31:54.957Z,13.34
2022-11-29T09:34:27.884Z,13.39
2022-11-29T09:37:02.059Z,13.45
2022-11-29T09:39:34.959Z,13.49
2022-11-29T09:42:24.342Z,13.56
2022-11-29T09:45:05.795Z,13.63
2022-11-29T09:47:58.634Z,13.70
2022-11-29T09:50:35.071Z,13.74
2022-11-29T09:53:27.212Z,13.80
2022-11-29T09:56:11.696Z,13.85
2022-11-29T09:58:51.522Z,13.88
2022-11-29T10:01:29.013Z,13.91
2022-11-29T10:04:06.081Z,13.97
2022-11-29T10:06:44.190Z,14.02
2022-11-29T10:09:23.912Z,14.07
2022-11-29T10:12:07.956Z,14.12
2022-11-29T10:14:47.245Z,14.16
2022-11-29T10:17:35.773Z,14.19
2022-11-29T10:20:15.618Z,14.22
2022-11-29T10:22:54.509Z,14.25
2022-11-29T10:25:34.878Z,14.30
2022-11-29T10:28:13.835Z,14.31
2022-11-29T10:30:47.614Z,14.32
2022-11-29T10:33:22.551Z,14.35
2022-11-29T10:35:58.320Z,14.38
2022-11-29T10:38:31.934Z,14.39
2022-11-29T10:41:11.997Z,14.42
2022-11-29T10:43:44.991Z,14.40
2022-11-29T10:46:28.264Z,14.45
2022-11-29T10:49:03.863Z,14.46
2022-11-29T10:51:36.743Z,14.46
2022-11-29T10:54:26.306Z,14.49
2022-11-29T10:57:02.768Z,14.50
2022-11-29T10:59:35.954Z,14.49
2022-11-29T11:02:19.777Z,14.53
2022-11-29T11:04:52.728Z,14.51
2022-11-29T11:07:30.192Z,14.53
2022-11-29T11:10:06.082Z,14.55
2022-11-29T11:12:40.369Z,14.55
2022-11-29T11:15:29.298Z,14.58
2022-11-29T11:18:05.012Z,14.59
2022-11-29T11:20:44.372Z,14.60
2022-11-29T11:23:26.084Z,14.60
2022-11-29T11:26:01.956Z,14.57
2022-11-29T11:28:41.373Z,14.56
2022-11-29T11:31:15.242Z,14.49
2022-11-29T11:33:48.777Z,14.44
2022-11-29T11:36:24.731Z,14.34
2022-11-29T11:38:59.855Z,14.23
2022-11-29T11:41:52.296Z,14.09
2022-11-29T11:44:53.626Z,13.93
2022-11-29T11:47:28.628Z,13.75
2022-11-29T11:50:09.155Z,13.65
2022-11-29T11:52:50.151Z,13.51
2022-11-29T11:55:31.027Z,13.43
2022-11-29T11:58:10.592Z,13.36
2022-11-29T12:01:05.665Z,13.33
2022-11-29T12:03:51.065Z,13.30
2022-11-29T12:06:42.069Z,13.26
2022-11-29T12:09:27.303Z,13.26
2022-11-29T12:12:11.838Z,13.25
2022-11-29T12:14:55.605Z,13.28
2022-11-29T12:17:37.022Z,13.28
2022-11-29T12:20:21.357Z,13.29
2022-11-29T12:23:14.743Z,13.33
2022-11-29T12:25:53.148Z,13.34
2022-11-29T12:28:29.889Z,13.39
2022-11-29T12:31:17.891Z,13.43
2022-11-29T12:34:04.123Z,13.49
2022-11-29T12:36:47.703Z,13.52
2022-11-29T12:39:37.871Z,13.53
2022-11-29T12:42:17.779Z,13.53
2022-11-29T12:45:01.275Z,13.55
2022-11-29T12:47:51.711Z,13.55
2022-11-29T12:50:37.139Z,13.56
2022-11-29T12:53:27.281Z,13.56
2022-11-29T12:56:11.054Z,13.55
2022-11-29T12:58:59.959Z,13.54
2022-11-29T13:01:44.849Z,13.54
2022-11-29T13:04:24.917Z,13.55
2022-11-29T13:07:07.767Z,13.54
2022-11-29T13:10:14.973Z,13.54
2022-11-29T13:12:55.006Z,13.53
2022-11-29T13:15:40.565Z,13.52
2022-11-29T13:18:19.799Z,13.52
2022-11-29T13:20:58.293Z,13.52
2022-11-29T13:24:07.380Z,13.54
2022-11-29T13:26:35.167Z,13.59
2022-11-29T13:29:13.975Z,13.60
2022-11-29T13:31:48.241Z,13.62
2022-11-29T13:34:25.841Z,13.65
2022-11-29T13:37:08.600Z,13.62
2022-11-29T13:39:58.105Z,13.61
2022-11-29T13:42:42.471Z,13.59
2022-11-29T13:45:22.788Z,13.57
2022-11-29T13:47:57.619Z,13.52
2022-11-29T13:50:39.031Z,13.51
2022-11-29T13:53:16.321Z,13.48
2022-11-29T13:56:00.324Z,13.43
2022-11-29T13:58:41.119Z,13.41
2022-11-29T14:01:15.473Z,13.36
2022-11-29T14:04:05.699Z,13.33
2022-11-29T14:06:40.095Z,13.28
2022-11-29T14:09:23.671Z,13.26
2022-11-29T14:12:03.871Z,13.20
2022-11-29T14:14:49.096Z,13.15
2022-11-29T14:17:47.496Z,13.09
2022-11-29T14:20:45.172Z,13.03
2022-11-29T14:23:32.166Z,12.95
2022-11-29T14:26:35.117Z,12.89
2022-11-29T14:29:54.948Z,12.83
2022-11-29T14:32:35.995Z,12.76
2022-11-29T14:35:17.437Z,12.73
2022-11-29T14:37:57.515Z,12.69
2022-11-29T14:40:35.901Z,12.62
2022-11-29T14:43:21.852Z,12.60
2022-11-29T14:46:11.293Z,12.55
2022-11-29T14:48:57.752Z,12.50
2022-11-29T14:51:32.960Z,12.43
2022-11-29T14:54:16.039Z,12.41
2022-11-29T14:56:48.937Z,12.35
2022-11-29T14:59:55.654Z,12.33
2022-11-29T15:02:35.263Z,12.30
2022-11-29T15:05:16.091Z,12.27
2022-11-29T15:07:53.878Z,12.24
2022-11-29T15:10:30.922Z,12.21
2022-11-29T15:13:05.739Z,12.18
2022-11-29T15:15:52.805Z,12.16
2022-11-29T15:18:55.172Z,12.14
2022-11-29T15:21:36.861Z,12.10
2022-11-29T15:24:12.961Z,12.07
2022-11-29T15:26:57.482Z,12.08
2022-11-29T15:29:32.241Z,12.04
2022-11-29T15:32:08.037Z,12.02
2022-11-29T15:34:45.246Z,12.00
2022-11-29T15:37:24.276Z,11.98
2022-11-29T15:40:04.656Z,11.96
2022-11-29T15:42:43.695Z,11.93
2022-11-29T15:45:28.976Z,11.88
2022-11-29T15:48:30.101Z,11.84
2022-11-29T15:51:12.436Z,11.77
2022-11-29T15:53:50.385Z,11.72
2022-11-29T15:56:31.464Z,11.68
2022-11-29T15:59:10.250Z,11.65
2022-11-29T16:01:47.345Z,11.61
2022-11-29T16:04:22.976Z,11.58
2022-11-29T16:06:58.427Z,11.55
2022-11-29T16:09:35.838Z,11.51
2022-11-29T16:12:14.774Z,11.49
2022-11-29T16:14:53.792Z,11.47
2022-11-29T16:17:28.117Z,11.42
2022-11-29T16:20:24.932Z,11.42
2022-11-29T16:23:12.636Z,11.41
2022-11-29T16:25:53.689Z,11.38
2022-11-29T16:28:30.871Z,11.38
2022-11-29T16:31:05.007Z,11.35
2022-11-29T16:33:39.448Z,11.35
2022-11-29T16:36:16.571Z,11.35
2022-11-29T16:38:53.913Z,11.35
2022-11-29T16:41:33.448Z,11.36
2022-11-29T16:44:30.182Z,11.34
2022-11-29T16:47:13.685Z,11.35
2022-11-29T16:49:46.967Z,11.36
2022-11-29T16:52:27.763Z,11.38
2022-11-29T16:55:02.309Z,11.37
2022-11-29T16:57:35.640Z,11.39
2022-11-29T17:00:22.696Z,11.40
2022-11-29T17:02:55.627Z,11.38
2022-11-29T17:05:28.548Z,11.39
2022-11-29T17:08:01.817Z,11.40
2022-11-29T17:10:36.082Z,11.40
2022-11-29T17:13:10.610Z,11.42
2022-11-29T17:15:43.474Z,11.41
2022-11-29T17:18:16.590Z,11.39
2022-11-29T17:20:49.738Z,11.40
2022-11-29T17:23:22.794Z,11.40
2022-11-29T17:26:00.976Z,11.42
2022-11-29T17:28:34.041Z,11.40
2022-11-29T17:31:09.951Z,11.43
2022-11-29T17:33:43.400Z,11.41
2022-11-29T17:36:18.324Z,11.41
2022-11-29T17:38:51.344Z,11.40
2022-11-29T17:41:28.357Z,11.40
2022-11-29T17:44:01.869Z,11.38
2022-11-29T17:46:36.429Z,11.37
2022-11-29T17:49:10.651Z,11.37
2022-11-29T17:51:51.761Z,11.37
2022-11-29T17:54:25.984Z,11.38
2022-11-29T17:57:00.863Z,11.39
2022-11-29T17:59:33.865Z,11.38
2022-11-29T18:02:07.859Z,11.36
2022-11-29T18:04:43.053Z,11.38
2022-11-29T18:07:17.316Z,11.38
2022-11-29T18:09:51.078Z,11.39
2022-11-29T18:12:25.461Z,11.39
2022-11-29T18:14:58.805Z,11.39
2022-11-29T18:17:32.038Z,11.40
2022-11-29T18:20:05.553Z,11.41
2022-11-29T18:22:38.461Z,11.43
2022-11-29T18:25:37.681Z,11.44
2022-11-29T18:28:06.870Z,11.46
2022-11-29T18:30:39.955Z,11.45
2022-11-29T18:33:13.388Z,11.47
2022-11-29T18:35:46.523Z,11.47
2022-11-29T18:38:19.790Z,11.47
2022-11-29T18:40:52.999Z,11.49
2022-11-29T18:43:27.497Z,11.50
2022-11-29T18:46:00.650Z,11.48
2022-11-29T18:48:33.894Z,11.48
2022-11-29T18:51:08.727Z,11.48
2022-11-29T18:53:44.249Z,11.48
2022-11-29T18:56:19.293Z,11.48
2022-11-29T18:58:58.358Z,11.49
2022-11-29T19:01:35.627Z,11.48
2022-11-29T19:04:09.851Z,11.48
2022-11-29T19:06:43.866Z,11.46
2022-11-29T19:09:19.331Z,11.48
2022-11-29T19:11:52.308Z,11.46
2022-11-29T19:14:26.668Z,11.48
2022-11-29T19:16:59.732Z,11.48
2022-11-29T19:19:33.640Z,11.49
2022-11-29T19:22:06.859Z,11.50
2022-11-29T19:24:40.047Z,11.52
2022-11-29T19:27:13.135Z,11.53
2022-11-29T19:29:47.805Z,11.55
2022-11-29T19:32:21.222Z,11.56
2022-11-29T19:34:54.114Z,11.54
2022-11-29T19:37:27.367Z,11.54
2022-11-29T19:40:00.310Z,11.55
2022-11-29T19:42:33.472Z,11.53
2022-11-29T19:45:17.186Z,11.53
2022-11-29T19:47:51.041Z,11.53
2022-11-29T19:50:24.131Z,11.53
2022-11-29T19:52:57.113Z,11.50
2022-11-29T19:55:30.315Z,11.47
2022-11-29T19:58:03.324Z,11.48
2022-11-29T20:00:37.767Z,11.48
2022-11-29T20:03:10.810Z,11.48
2022-11-29T20:05:43.837Z,11.48
2022-11-29T20:08:21.266Z,11.48
2022-11-29T20:10:54.668Z,11.49
2022-11-29T20:13:27.829Z,11.46
2022-11-29T20:16:04.246Z,11.46
2022-11-29T20:18:39.327Z,11.44
2022-11-29T20:21:14.664Z,11.42
2022-11-29T20:23:47.789Z,11.40
2022-11-29T20:26:23.199Z,11.38
2022-11-29T20:28:57.543Z,11.38
2022-11-29T20:31:34.223Z,11.35
2022-11-29T20:34:07.643Z,11.31
2022-11-29T20:36:48.360Z,11.32
2022-11-29T20:39:33.071Z,11.31
2022-11-29T20:42:38.009Z,11.29
2022-11-29T20:45:13.863Z,11.26
2022-11-29T20:47:54.423Z,11.28
2022-11-29T20:50:29.950Z,11.25
2022-11-29T20:53:17.192Z,11.26
2022-11-29T20:55:50.652Z,11.22
2022-11-29T20:58:23.914Z,11.23
2022-11-29T21:00:57.582Z,11.21
2022-11-29T21:03:32.287Z,11.18
2022-11-29T21:06:07.176Z,11.13
2022-11-29T21:08:40.349Z,11.09
2022-11-29T21:11:14.182Z,11.04
2022-11-29T21:13:48.204Z,11.00
2022-11-29T21:16:28.622Z,10.94
2022-11-29T21:19:04.172Z,10.88
2022-11-29T21:21:44.783Z,10.82
2022-11-29T21:24:29.715Z,10.78
2022-11-29T21:27:04.472Z,10.72
2022-11-29T21:29:38.012Z,10.68
2022-11-29T21:32:22.192Z,10.66
2022-11-29T21:34:56.709Z,10.62
2022-11-29T21:37:32.171Z,10.58
2022-11-29T21:40:06.209Z,10.55
2022-11-29T21:42:39.476Z,10.52
2022-11-29T21:45:15.712Z,10.50
2022-11-29T21:47:49.231Z,10.46
2022-11-29T21:50:23.750Z,10.45
2022-11-29T21:52:56.734Z,10.44
2022-11-29T21:55:32.143Z,10.41
2022-11-29T21:58:05.653Z,10.40
2022-11-29T22:00:38.772Z,10.38
2022-11-29T22:03:11.790Z,10.38
2022-11-29T22:05:46.231Z,10.38
2022-11-29T22:08:19.557Z,10.37
2022-11-29T22:11:01.641Z,10.37
2022-11-29T22:13:34.721Z,10.33
2022-11-29T22:16:09.946Z,10.34
2022-11-29T22:18:43.232Z,10.32
2022-11-29T22:21:17.677Z,10.33
2022-11-29T22:23:50.841Z,10.31
2022-11-29T22:26:23.999Z,10.31
2022-11-29T22:28:57.110Z,10.28
2022-11-29T22:31:30.300Z,10.29
2022-11-29T22:34:03.314Z,10.27
2022-11-29T22:36:38.692Z,10.26
2022-11-29T22:39:12.130Z,10.25
2022-11-29T22:41:49.227Z,10.21
2022-11-29T22:44:25.648Z,10.23
2022-11-29T22:46:58.915Z,10.20
2022-11-29T22:49:33.296Z,10.19
2022-11-29T22:52:07.824Z,10.19
2022-11-29T22:54:40.756Z,10.19
2022-11-29T22:57:13.704Z,10.19
2022-11-29T22:59:46.982Z,10.19
2022-11-29T23:02:20.280Z,10.16
2022-11-29T23:04:53.340Z,10.18
2022-11-29T23:07:28.391Z,10.19
2022-11-29T23:10:01.429Z,10.17
2022-11-29T23:12:34.360Z,10.16
2022-11-29T23:15:08.074Z,10.17
2022-11-29T23:17:41.260Z,10.13
2022-11-29T23:20:15.013Z,10.13
2022-11-29T23:22:49.779Z,10.12
2022-11-29T23:25:22.758Z,10.11
2022-11-29T23:27:55.691Z,10.09
2022-11-29T23:30:28.791Z,10.09
2022-11-29T23:33:01.951Z,10.08
2022-11-29T23:35:35.186Z,10.09
2022-11-29T23:38:09.913Z,10.10
2022-11-29T23:40:44.807Z,10.10
2022-11-29T23:43:17.748Z,10.10
2022-11-29T23:45:51.108Z,10.08
2022-11-29T23:48:24.508Z,10.07
2022-11-29T23:50:57.466Z,10.05
2022-11-29T23:53:31.903Z,10.05
2022-11-29T23:56:06.989Z,10.05
2022-11-29T23:58:40.522Z,10.04
